createdAt,value
2019-03-28T00:01:59.361Z,8.50
2019-03-28T00:04:28.037Z,8.50
2019-03-28T00:06:56.632Z,8.50
2019-03-28T00:09:25.201Z,8.50
2019-03-28T00:11:54.183Z,8.50
2019-03-28T00:14:22.762Z,8.40
2019-03-28T00:16:52.600Z,8.40
2019-03-28T00:19:21.182Z,8.40
2019-03-28T00:21:49.746Z,8.40
2019-03-28T00:24:20.099Z,8.40
2019-03-28T00:26:48.741Z,8.40
2019-03-28T00:29:17.293Z,8.40
2019-03-28T00:31:47.865Z,8.40
2019-03-28T00:34:16.144Z,8.30
2019-03-28T00:36:44.720Z,8.30
2019-03-28T00:39:13.297Z,8.30
2019-03-28T00:41:41.922Z,8.30
2019-03-28T00:44:10.541Z,8.30
2019-03-28T00:46:39.135Z,8.30
2019-03-28T00:49:07.836Z,8.30
2019-03-28T00:51:36.830Z,8.30
2019-03-28T00:54:05.411Z,8.30
2019-03-28T00:56:46.952Z,8.30
2019-03-28T00:59:10.164Z,8.30
2019-03-28T01:01:38.776Z,8.30
2019-03-28T01:04:07.377Z,8.30
2019-03-28T01:06:35.978Z,8.30
2019-03-28T01:09:07.560Z,8.30
2019-03-28T01:11:36.161Z,8.30
2019-03-28T01:14:04.845Z,8.30
2019-03-28T01:16:33.413Z,8.30
2019-03-28T01:19:02.050Z,8.30
2019-03-28T01:21:30.708Z,8.30
2019-03-28T01:24:00.278Z,8.30
2019-03-28T01:26:28.898Z,8.30
2019-03-28T01:28:58.503Z,8.30
2019-03-28T01:31:27.093Z,8.30
2019-03-28T01:33:56.730Z,8.30
2019-03-28T01:36:26.256Z,8.30
2019-03-28T01:38:54.817Z,8.30
2019-03-28T01:41:23.422Z,8.30
2019-03-28T01:43:58.292Z,8.30
2019-03-28T01:46:27.325Z,8.30
2019-03-28T01:48:58.410Z,8.20
2019-03-28T01:51:27.474Z,8.30
2019-03-28T01:53:56.042Z,8.20
2019-03-28T01:56:26.623Z,8.30
2019-03-28T01:58:56.193Z,8.20
2019-03-28T02:01:24.785Z,8.20
2019-03-28T02:03:53.357Z,8.30
2019-03-28T02:06:21.995Z,8.20
2019-03-28T02:08:50.663Z,8.20
2019-03-28T02:11:19.245Z,8.30
2019-03-28T02:13:47.833Z,8.30
2019-03-28T02:16:17.479Z,8.30
2019-03-28T02:18:48.071Z,8.30
2019-03-28T02:21:16.656Z,8.40
2019-03-28T02:23:45.243Z,8.40
2019-03-28T02:26:13.825Z,8.40
2019-03-28T02:28:42.432Z,8.40
2019-03-28T02:31:12.362Z,8.40
2019-03-28T02:33:40.956Z,8.40
2019-03-28T02:36:11.576Z,8.40
2019-03-28T02:38:41.105Z,8.40
2019-03-28T02:41:10.734Z,8.40
2019-03-28T02:43:39.376Z,8.40
2019-03-28T02:46:07.981Z,8.30
2019-03-28T02:48:36.582Z,8.40
2019-03-28T02:51:05.447Z,8.40
2019-03-28T02:53:35.034Z,8.30
2019-03-28T02:56:03.729Z,8.40
2019-03-28T02:58:33.207Z,8.40
2019-03-28T03:01:09.714Z,8.40
2019-03-28T03:03:38.280Z,8.40
2019-03-28T03:06:06.856Z,8.40
2019-03-28T03:08:35.528Z,8.40
2019-03-28T03:11:12.585Z,8.40
2019-03-28T03:13:41.517Z,8.40
2019-03-28T03:16:10.189Z,8.40
2019-03-28T03:18:38.775Z,8.40
2019-03-28T03:21:08.335Z,8.40
2019-03-28T03:23:36.883Z,8.40
2019-03-28T03:26:05.908Z,8.40
2019-03-28T03:28:34.546Z,8.40
2019-03-28T03:31:03.113Z,8.30
2019-03-28T03:33:32.664Z,8.40
2019-03-28T03:36:01.567Z,8.30
2019-03-28T03:38:30.187Z,8.30
2019-03-28T03:40:58.791Z,8.40
2019-03-28T03:43:27.398Z,8.40
2019-03-28T03:45:57.101Z,8.40
2019-03-28T03:48:25.680Z,8.40
2019-03-28T03:50:54.328Z,8.40
2019-03-28T03:53:22.974Z,8.40
2019-03-28T03:55:52.542Z,8.30
2019-03-28T03:58:21.208Z,8.40
2019-03-28T04:00:50.759Z,8.40
2019-03-28T04:03:19.346Z,8.40
2019-03-28T04:05:48.076Z,8.40
2019-03-28T04:08:21.346Z,8.40
2019-03-28T04:10:49.962Z,8.40
2019-03-28T04:13:18.601Z,8.40
2019-03-28T04:15:47.254Z,8.40
2019-03-28T04:18:16.332Z,8.40
2019-03-28T04:20:44.971Z,8.40
2019-03-28T04:23:13.645Z,8.40
2019-03-28T04:25:43.786Z,8.40
2019-03-28T04:28:12.762Z,8.40
2019-03-28T04:30:43.674Z,8.40
2019-03-28T04:33:12.370Z,8.40
2019-03-28T04:35:41.055Z,8.40
2019-03-28T04:38:09.695Z,8.40
2019-03-28T04:40:39.305Z,8.40
2019-03-28T04:43:09.014Z,8.40
2019-03-28T04:45:37.766Z,8.40
2019-03-28T04:48:06.450Z,8.40
2019-03-28T04:50:35.084Z,8.40
2019-03-28T04:53:03.783Z,8.50
2019-03-28T04:55:32.410Z,8.40
2019-03-28T04:58:01.186Z,8.50
2019-03-28T05:00:29.790Z,8.50
2019-03-28T05:03:06.592Z,8.50
2019-03-28T05:05:35.673Z,8.50
2019-03-28T05:08:04.305Z,8.50
2019-03-28T05:10:33.932Z,8.50
2019-03-28T05:13:02.600Z,8.60
2019-03-28T05:15:32.091Z,8.60
2019-03-28T05:18:01.692Z,8.60
2019-03-28T05:20:30.311Z,8.60
2019-03-28T05:22:59.004Z,8.60
2019-03-28T05:25:27.695Z,8.70
2019-03-28T05:27:56.389Z,8.70
2019-03-28T05:30:25.977Z,8.70
2019-03-28T05:32:54.711Z,8.70
2019-03-28T05:35:23.343Z,8.70
2019-03-28T05:37:52.116Z,8.70
2019-03-28T05:40:22.849Z,8.70
2019-03-28T05:42:51.104Z,8.70
2019-03-28T05:45:19.832Z,8.70
2019-03-28T05:47:48.507Z,8.70
2019-03-28T05:50:19.411Z,8.80
2019-03-28T05:52:49.073Z,8.80
2019-03-28T05:55:19.678Z,8.80
2019-03-28T05:57:48.266Z,8.80
2019-03-28T06:00:17.836Z,8.90
2019-03-28T06:02:46.483Z,8.90
2019-03-28T06:05:15.071Z,8.90
2019-03-28T06:07:45.730Z,8.90
2019-03-28T06:10:16.529Z,9.00
2019-03-28T06:12:45.389Z,9.00
2019-03-28T06:15:14.160Z,9.10
2019-03-28T06:17:43.834Z,9.10
2019-03-28T06:20:19.560Z,9.10
2019-03-28T06:22:48.136Z,9.20
2019-03-28T06:25:18.720Z,9.30
2019-03-28T06:27:47.413Z,9.40
2019-03-28T06:30:16.198Z,9.60
2019-03-28T06:32:44.859Z,9.70
2019-03-28T06:35:21.989Z,9.80
2019-03-28T06:37:51.576Z,9.90
2019-03-28T06:40:20.364Z,9.90
2019-03-28T06:42:48.972Z,9.90
2019-03-28T06:45:18.471Z,9.90
2019-03-28T06:47:47.041Z,9.90
2019-03-28T06:50:16.241Z,9.90
2019-03-28T06:52:44.907Z,9.90
2019-03-28T06:55:13.540Z,9.90
2019-03-28T06:57:42.178Z,10.00
2019-03-28T07:00:11.746Z,10.00
2019-03-28T07:02:40.379Z,10.00
2019-03-28T07:05:10.286Z,10.20
2019-03-28T07:07:38.885Z,10.30
2019-03-28T07:10:07.869Z,10.50
2019-03-28T07:12:36.454Z,10.60
2019-03-28T07:15:08.488Z,10.70
2019-03-28T07:17:39.121Z,10.80
2019-03-28T07:20:09.264Z,10.90
2019-03-28T07:22:38.092Z,10.90
2019-03-28T07:25:07.621Z,10.90
2019-03-28T07:27:37.336Z,11.00
2019-03-28T07:30:08.216Z,11.00
2019-03-28T07:32:36.853Z,11.20
2019-03-28T07:35:07.282Z,11.20
2019-03-28T07:37:36.000Z,11.30
2019-03-28T07:40:07.181Z,11.40
2019-03-28T07:42:35.875Z,11.50
2019-03-28T07:45:07.505Z,11.50
2019-03-28T07:47:36.192Z,11.50
2019-03-28T07:50:07.817Z,11.60
2019-03-28T07:52:36.528Z,11.70
2019-03-28T07:55:07.652Z,11.90
2019-03-28T07:57:36.248Z,12.00
2019-03-28T08:00:10.032Z,12.00
2019-03-28T08:02:38.604Z,12.10
2019-03-28T08:05:09.255Z,12.20
2019-03-28T08:07:45.080Z,12.30
2019-03-28T08:10:08.644Z,12.20
2019-03-28T08:12:38.241Z,12.30
2019-03-28T08:15:10.282Z,12.40
2019-03-28T08:17:38.910Z,13.40
2019-03-28T08:20:10.762Z,13.90
2019-03-28T08:22:39.414Z,14.00
2019-03-28T08:25:11.672Z,13.70
2019-03-28T08:27:38.932Z,13.40
2019-03-28T08:30:18.028Z,13.10
2019-03-28T08:32:40.202Z,12.80
2019-03-28T08:35:09.040Z,12.60
2019-03-28T08:37:37.863Z,12.70
2019-03-28T08:40:10.517Z,13.00
2019-03-28T08:42:38.319Z,13.20
2019-03-28T08:45:07.729Z,14.00
2019-03-28T08:47:38.393Z,14.30
2019-03-28T08:50:08.150Z,14.40
2019-03-28T08:52:36.722Z,14.30
2019-03-28T08:55:09.795Z,14.10
2019-03-28T08:57:37.317Z,13.90
2019-03-28T09:00:09.243Z,13.60
2019-03-28T09:02:37.833Z,13.30
2019-03-28T09:05:07.488Z,13.00
2019-03-28T09:07:36.137Z,12.90
2019-03-28T09:10:07.897Z,12.80
2019-03-28T09:12:36.617Z,12.80
2019-03-28T09:15:08.962Z,12.80
2019-03-28T09:17:37.555Z,13.00
2019-03-28T09:20:08.485Z,13.10
2019-03-28T09:22:38.982Z,13.30
2019-03-28T09:25:08.126Z,13.40
2019-03-28T09:27:36.701Z,13.70
2019-03-28T09:30:09.648Z,13.80
2019-03-28T09:32:38.376Z,13.80
2019-03-28T09:35:09.018Z,14.10
2019-03-28T09:37:37.595Z,14.30
2019-03-28T09:40:07.160Z,14.50
2019-03-28T09:42:35.797Z,14.70
2019-03-28T09:45:06.398Z,14.70
2019-03-28T09:47:34.987Z,14.80
2019-03-28T09:50:04.894Z,14.50
2019-03-28T09:52:33.587Z,14.20
2019-03-28T09:55:02.233Z,14.10
2019-03-28T09:57:30.783Z,14.00
2019-03-28T09:59:59.418Z,14.00
2019-03-28T10:02:27.987Z,14.30
2019-03-28T10:04:56.565Z,14.90
2019-03-28T10:07:25.173Z,15.00
2019-03-28T10:09:54.136Z,15.00
2019-03-28T10:12:23.106Z,15.00
2019-03-28T10:14:51.731Z,14.70
2019-03-28T10:17:20.371Z,14.70
2019-03-28T10:19:48.979Z,15.00
2019-03-28T10:22:17.546Z,15.00
2019-03-28T10:24:46.201Z,15.10
2019-03-28T10:27:14.764Z,15.10
2019-03-28T10:29:43.422Z,15.10
2019-03-28T10:32:12.051Z,15.00
2019-03-28T10:34:40.710Z,14.80
2019-03-28T10:37:09.355Z,14.70
2019-03-28T10:39:39.911Z,14.50
2019-03-28T10:42:08.468Z,14.60
2019-03-28T10:44:37.156Z,14.60
2019-03-28T10:47:06.140Z,14.50
2019-03-28T10:49:36.646Z,14.50
2019-03-28T10:52:05.295Z,14.60
2019-03-28T10:54:33.921Z,14.60
2019-03-28T10:57:13.124Z,14.80
2019-03-28T10:59:33.025Z,14.80
2019-03-28T11:02:01.620Z,14.90
2019-03-28T11:04:30.227Z,15.10
2019-03-28T11:06:58.796Z,15.30
2019-03-28T11:09:27.392Z,15.40
2019-03-28T11:11:56.031Z,15.30
2019-03-28T11:14:24.625Z,15.10
2019-03-28T11:16:53.592Z,15.10
2019-03-28T11:19:22.239Z,15.00
2019-03-28T11:21:50.894Z,15.10
2019-03-28T11:24:19.484Z,15.20
2019-03-28T11:26:48.050Z,15.10
2019-03-28T11:29:16.959Z,15.10
2019-03-28T11:31:50.597Z,15.10
2019-03-28T11:34:16.766Z,15.00
2019-03-28T11:36:45.372Z,15.00
2019-03-28T11:39:13.983Z,14.90
2019-03-28T11:41:42.655Z,14.70
2019-03-28T11:44:11.608Z,14.30
2019-03-28T11:46:40.369Z,14.20
2019-03-28T11:49:09.011Z,14.20
2019-03-28T11:51:38.572Z,14.30
2019-03-28T11:54:07.198Z,14.30
2019-03-28T11:56:35.792Z,14.10
2019-03-28T11:59:04.726Z,13.80
2019-03-28T12:01:33.471Z,13.50
2019-03-28T12:04:02.065Z,13.30
2019-03-28T12:06:30.658Z,13.10
2019-03-28T12:09:01.272Z,13.00
2019-03-28T12:11:29.899Z,13.00
2019-03-28T12:13:59.794Z,12.90
2019-03-28T12:16:31.218Z,12.70
2019-03-28T12:18:59.796Z,12.50
2019-03-28T12:21:28.380Z,12.40
2019-03-28T12:23:57.417Z,12.40
2019-03-28T12:26:25.993Z,12.60
2019-03-28T12:28:54.572Z,12.80
2019-03-28T12:31:23.557Z,12.80
2019-03-28T12:33:52.122Z,13.00
2019-03-28T12:36:20.774Z,13.00
2019-03-28T12:38:49.344Z,12.90
2019-03-28T12:41:17.940Z,12.70
2019-03-28T12:43:46.543Z,12.60
2019-03-28T12:46:15.254Z,12.50
2019-03-28T12:48:43.835Z,12.40
2019-03-28T12:51:14.466Z,12.20
2019-03-28T12:53:43.044Z,12.10
2019-03-28T12:56:12.326Z,12.10
2019-03-28T12:58:41.024Z,12.00
2019-03-28T13:01:09.614Z,12.00
2019-03-28T13:03:45.301Z,12.00
2019-03-28T13:06:08.590Z,12.00
2019-03-28T13:08:37.156Z,11.90
2019-03-28T13:11:05.861Z,11.90
2019-03-28T13:13:34.444Z,11.90
2019-03-28T13:16:03.020Z,11.80
2019-03-28T13:18:31.651Z,11.80
2019-03-28T13:21:12.648Z,11.70
2019-03-28T13:23:30.414Z,11.70
2019-03-28T13:25:59.986Z,11.70
2019-03-28T13:28:28.772Z,11.70
2019-03-28T13:30:57.470Z,11.80
2019-03-28T13:33:26.067Z,11.80
2019-03-28T13:35:54.970Z,11.80
2019-03-28T13:38:23.856Z,11.80
2019-03-28T13:40:52.557Z,11.90
2019-03-28T13:43:21.210Z,12.00
2019-03-28T13:45:49.768Z,12.00
2019-03-28T13:48:18.696Z,12.00
2019-03-28T13:50:47.282Z,12.00
2019-03-28T13:53:16.234Z,12.00
2019-03-28T13:55:44.918Z,11.90
2019-03-28T13:58:13.916Z,11.90
2019-03-28T14:00:42.667Z,11.90
2019-03-28T14:03:11.280Z,11.90
2019-03-28T14:05:39.853Z,11.90
2019-03-28T14:08:08.513Z,11.80
2019-03-28T14:10:38.137Z,11.80
2019-03-28T14:13:06.817Z,11.70
2019-03-28T14:15:35.493Z,11.80
2019-03-28T14:18:04.124Z,11.70
2019-03-28T14:20:34.040Z,11.70
2019-03-28T14:23:02.615Z,11.70
2019-03-28T14:25:31.509Z,11.70
2019-03-28T14:28:00.117Z,11.80
2019-03-28T14:30:29.660Z,11.80
2019-03-28T14:33:11.145Z,11.80
2019-03-28T14:35:31.029Z,11.60
2019-03-28T14:37:59.607Z,11.90
2019-03-28T14:40:28.714Z,11.80
2019-03-28T14:43:00.232Z,11.90
2019-03-28T14:45:28.832Z,11.90
2019-03-28T14:47:57.793Z,12.00
2019-03-28T14:50:34.652Z,11.90
2019-03-28T14:53:03.242Z,11.90
2019-03-28T14:55:37.534Z,11.90
2019-03-28T14:58:07.564Z,11.90
2019-03-28T15:00:46.802Z,11.90
2019-03-28T15:03:24.893Z,11.80
2019-03-28T15:05:44.944Z,11.80
2019-03-28T15:08:13.561Z,11.80
2019-03-28T15:10:44.170Z,11.80
2019-03-28T15:13:12.807Z,11.80
2019-03-28T15:15:41.381Z,11.80
2019-03-28T15:18:10.170Z,11.80
2019-03-28T15:20:38.765Z,11.80
2019-03-28T15:23:07.413Z,11.80
2019-03-28T15:25:36.033Z,11.80
2019-03-28T15:28:04.597Z,11.70
2019-03-28T15:30:33.162Z,11.70
2019-03-28T15:33:01.767Z,11.80
2019-03-28T15:35:30.344Z,11.80
2019-03-28T15:38:00.035Z,11.80
2019-03-28T15:40:28.691Z,11.80
2019-03-28T15:42:57.255Z,11.80
2019-03-28T15:45:26.278Z,11.80
2019-03-28T15:47:54.986Z,11.80
2019-03-28T15:50:23.608Z,11.80
2019-03-28T15:52:55.268Z,11.70
2019-03-28T15:55:23.932Z,11.70
2019-03-28T15:57:52.499Z,11.70
2019-03-28T16:00:21.353Z,11.70
2019-03-28T16:02:50.925Z,11.70
2019-03-28T16:05:19.499Z,11.70
2019-03-28T16:07:48.185Z,11.80
2019-03-28T16:10:17.136Z,11.80
2019-03-28T16:12:45.796Z,11.80
2019-03-28T16:15:15.220Z,11.80
2019-03-28T16:17:44.878Z,11.70
2019-03-28T16:20:14.340Z,11.60
2019-03-28T16:22:42.931Z,11.60
2019-03-28T16:25:11.616Z,11.40
2019-03-28T16:27:40.273Z,11.40
2019-03-28T16:30:11.174Z,11.30
2019-03-28T16:32:39.855Z,11.20
2019-03-28T16:35:08.568Z,11.20
2019-03-28T16:37:37.289Z,11.10
2019-03-28T16:40:06.426Z,11.10
2019-03-28T16:42:35.500Z,11.10
2019-03-28T16:45:06.986Z,11.10
2019-03-28T16:47:35.790Z,11.00
2019-03-28T16:50:06.249Z,11.00
2019-03-28T16:52:34.890Z,10.90
2019-03-28T16:55:03.642Z,10.90
2019-03-28T16:57:34.878Z,10.90
2019-03-28T17:00:06.107Z,10.80
2019-03-28T17:02:34.974Z,10.70
2019-03-28T17:05:04.772Z,10.60
2019-03-28T17:07:34.999Z,10.60
2019-03-28T17:10:04.296Z,10.50
2019-03-28T17:12:32.910Z,10.50
2019-03-28T17:15:01.622Z,10.40
2019-03-28T17:17:30.279Z,10.30
2019-03-28T17:19:58.989Z,10.30
2019-03-28T17:22:27.581Z,10.30
2019-03-28T17:24:57.450Z,10.20
2019-03-28T17:27:26.084Z,10.20
2019-03-28T17:29:55.040Z,10.20
2019-03-28T17:32:23.711Z,10.10
2019-03-28T17:34:52.369Z,10.10
2019-03-28T17:37:21.092Z,10.00
2019-03-28T17:39:50.041Z,10.00
2019-03-28T17:42:18.799Z,9.90
2019-03-28T17:44:47.475Z,9.90
2019-03-28T17:47:16.088Z,9.80
2019-03-28T17:49:44.775Z,9.80
2019-03-28T17:52:13.377Z,9.70
2019-03-28T17:54:42.142Z,9.70
2019-03-28T17:57:10.728Z,9.70
2019-03-28T17:59:39.897Z,9.60
2019-03-28T18:02:08.597Z,9.60
2019-03-28T18:04:47.476Z,9.60
2019-03-28T18:07:07.677Z,9.50
2019-03-28T18:09:36.321Z,9.50
2019-03-28T18:12:04.991Z,9.40
2019-03-28T18:14:33.581Z,9.40
2019-03-28T18:17:02.207Z,9.40
2019-03-28T18:19:30.783Z,9.30
2019-03-28T18:22:03.564Z,9.20
2019-03-28T18:24:30.522Z,9.20
2019-03-28T18:26:59.259Z,9.20
2019-03-28T18:29:27.915Z,9.10
2019-03-28T18:31:56.531Z,9.10
2019-03-28T18:34:25.126Z,9.00
2019-03-28T18:36:53.720Z,9.00
2019-03-28T18:39:23.305Z,9.00
2019-03-28T18:41:51.916Z,9.00
2019-03-28T18:44:20.507Z,9.00
2019-03-28T18:46:49.149Z,9.00
2019-03-28T18:49:18.103Z,9.00
2019-03-28T18:51:47.605Z,8.90
2019-03-28T18:54:16.201Z,8.90
2019-03-28T18:56:44.765Z,8.90
2019-03-28T18:59:21.755Z,8.90
2019-03-28T19:01:50.399Z,8.80
2019-03-28T19:04:19.071Z,8.80
2019-03-28T19:06:47.680Z,8.80
2019-03-28T19:09:16.317Z,8.70
2019-03-28T19:11:44.895Z,8.70
2019-03-28T19:14:13.565Z,8.70
2019-03-28T19:16:42.319Z,8.60
2019-03-28T19:19:10.972Z,8.60
2019-03-28T19:21:39.559Z,8.60
2019-03-28T19:24:08.130Z,8.60
2019-03-28T19:26:37.681Z,8.60
2019-03-28T19:29:06.347Z,8.60
2019-03-28T19:31:34.929Z,8.60
2019-03-28T19:34:04.447Z,8.50
2019-03-28T19:36:34.005Z,8.50
2019-03-28T19:39:03.576Z,8.50
2019-03-28T19:41:32.161Z,8.50
2019-03-28T19:44:02.633Z,8.40
2019-03-28T19:46:31.258Z,8.40
2019-03-28T19:49:01.128Z,8.40
2019-03-28T19:51:31.715Z,8.30
2019-03-28T19:54:00.277Z,8.30
2019-03-28T19:56:29.773Z,8.30
2019-03-28T19:58:59.238Z,8.20
2019-03-28T20:01:27.945Z,8.20
2019-03-28T20:03:56.488Z,8.10
2019-03-28T20:06:25.053Z,8.10
2019-03-28T20:08:53.696Z,8.10
2019-03-28T20:11:22.341Z,8.00
2019-03-28T20:13:50.935Z,8.30
2019-03-28T20:16:19.539Z,8.00
2019-03-28T20:18:48.104Z,8.00
2019-03-28T20:21:17.097Z,7.90
2019-03-28T20:23:45.711Z,7.90
2019-03-28T20:26:14.712Z,7.90
2019-03-28T20:28:43.290Z,7.80
2019-03-28T20:31:11.939Z,7.80
2019-03-28T20:33:40.565Z,7.80
2019-03-28T20:36:35.743Z,7.70
2019-03-28T20:38:39.368Z,7.70
2019-03-28T20:41:08.048Z,7.60
2019-03-28T20:43:36.623Z,7.60
2019-03-28T20:46:05.278Z,7.60
2019-03-28T20:48:33.911Z,7.50
2019-03-28T20:51:03.699Z,7.40
2019-03-28T20:53:32.283Z,7.40
2019-03-28T20:56:00.874Z,7.40
2019-03-28T20:58:29.466Z,7.30
2019-03-28T21:00:58.048Z,7.30
2019-03-28T21:03:26.723Z,7.20
2019-03-28T21:05:56.328Z,7.20
2019-03-28T21:08:25.035Z,7.20
2019-03-28T21:10:53.720Z,7.10
2019-03-28T21:13:22.315Z,7.10
2019-03-28T21:15:50.899Z,7.10
2019-03-28T21:18:19.470Z,7.10
2019-03-28T21:20:48.081Z,7.10
2019-03-28T21:23:16.663Z,7.10
2019-03-28T21:25:45.244Z,7.00
2019-03-28T21:28:14.124Z,7.00
2019-03-28T21:30:47.505Z,7.00
2019-03-28T21:33:15.033Z,7.00
2019-03-28T21:35:43.614Z,7.00
2019-03-28T21:38:12.241Z,7.00
2019-03-28T21:40:40.900Z,6.90
2019-03-28T21:43:09.693Z,6.90
2019-03-28T21:45:38.267Z,6.90
2019-03-28T21:48:07.305Z,6.90
2019-03-28T21:50:35.936Z,6.80
2019-03-28T21:53:05.443Z,6.80
2019-03-28T21:55:34.174Z,6.70
2019-03-28T21:58:03.178Z,6.70
2019-03-28T22:00:31.883Z,6.70
2019-03-28T22:03:00.624Z,6.60
2019-03-28T22:05:30.787Z,6.60
2019-03-28T22:07:59.815Z,6.60
2019-03-28T22:10:28.708Z,6.60
2019-03-28T22:12:59.058Z,6.60
2019-03-28T22:15:27.793Z,6.50
2019-03-28T22:17:56.391Z,6.50
2019-03-28T22:20:29.973Z,6.50
2019-03-28T22:22:59.596Z,6.40
2019-03-28T22:25:29.197Z,6.40
2019-03-28T22:27:57.777Z,6.40
2019-03-28T22:30:26.431Z,6.30
2019-03-28T22:32:54.990Z,6.30
2019-03-28T22:35:23.576Z,6.30
2019-03-28T22:37:52.254Z,6.30
2019-03-28T22:40:20.843Z,6.30
2019-03-28T22:42:49.469Z,6.30
2019-03-28T22:45:18.171Z,6.30
2019-03-28T22:47:46.893Z,6.20
2019-03-28T22:50:15.545Z,6.20
2019-03-28T22:52:44.153Z,6.20
2019-03-28T22:55:14.075Z,6.20
2019-03-28T22:57:43.711Z,6.10
2019-03-28T23:00:14.861Z,6.10
2019-03-28T23:02:43.497Z,6.10
2019-03-28T23:05:13.229Z,6.10
2019-03-28T23:07:41.894Z,6.10
2019-03-28T23:10:11.223Z,6.00
2019-03-28T23:12:39.807Z,6.00
2019-03-28T23:15:09.239Z,6.00
2019-03-28T23:17:37.807Z,6.00
2019-03-28T23:20:09.772Z,5.90
2019-03-28T23:22:38.348Z,5.90
2019-03-28T23:25:07.368Z,5.90
2019-03-28T23:27:36.002Z,5.90
2019-03-28T23:30:07.417Z,5.80
2019-03-28T23:32:36.030Z,5.80
2019-03-28T23:35:05.478Z,5.80
2019-03-28T23:37:34.050Z,5.70
2019-03-28T23:40:03.161Z,5.70
2019-03-28T23:42:32.464Z,5.70
2019-03-28T23:45:01.034Z,5.60
2019-03-28T23:47:30.329Z,5.70
2019-03-28T23:49:59.014Z,5.60
2019-03-28T23:52:28.257Z,5.60
2019-03-28T23:54:58.353Z,5.60
2019-03-28T23:57:26.933Z,5.60
2019-03-28T23:59:55.600Z,5.60
